sensor_id;sensor_type;location;lat;lon;timestamp;P1;durP1;ratioP1;P2;durP2;ratioP2
72319;SDS011;60269;52.502;16.732;2022-10-10T00:01:36;21.10;;;7.10;;
72319;SDS011;60269;52.502;16.732;2022-10-10T00:05:08;18.33;;;6.75;;
72319;SDS011;60269;52.502;16.732;2022-10-10T00:08:40;17.80;;;6.60;;
72319;SDS011;60269;52.502;16.732;2022-10-10T00:12:12;13.37;;;6.27;;
72319;SDS011;60269;52.502;16.732;2022-10-10T00:15:44;15.98;;;6.20;;
72319;SDS011;60269;52.502;16.732;2022-10-10T00:19:19;15.25;;;6.10;;
72319;SDS011;60269;52.502;16.732;2022-10-10T00:22:51;16.63;;;6.60;;
72319;SDS011;60269;52.502;16.732;2022-10-10T00:26:23;19.67;;;6.95;;
72319;SDS011;60269;52.502;16.732;2022-10-10T00:29:55;18.90;;;6.97;;
72319;SDS011;60269;52.502;16.732;2022-10-10T00:33:27;28.17;;;7.75;;
72319;SDS011;60269;52.502;16.732;2022-10-10T00:36:59;15.47;;;6.83;;
72319;SDS011;60269;52.502;16.732;2022-10-10T00:40:31;15.68;;;6.13;;
72319;SDS011;60269;52.502;16.732;2022-10-10T00:44:04;17.10;;;6.80;;
72319;SDS011;60269;52.502;16.732;2022-10-10T00:47:44;18.10;;;6.57;;
72319;SDS011;60269;52.502;16.732;2022-10-10T00:51:17;18.13;;;6.43;;
72319;SDS011;60269;52.502;16.732;2022-10-10T00:54:50;18.80;;;7.15;;
72319;SDS011;60269;52.502;16.732;2022-10-10T00:58:22;19.42;;;7.15;;
72319;SDS011;60269;52.502;16.732;2022-10-10T01:01:54;18.60;;;7.20;;
72319;SDS011;60269;52.502;16.732;2022-10-10T01:05:26;16.63;;;6.60;;
72319;SDS011;60269;52.502;16.732;2022-10-10T01:08:58;20.23;;;7.63;;
72319;SDS011;60269;52.502;16.732;2022-10-10T01:12:39;17.20;;;7.47;;
72319;SDS011;60269;52.502;16.732;2022-10-10T01:16:44;16.33;;;6.10;;
72319;SDS011;60269;52.502;16.732;2022-10-10T01:28:29;18.23;;;7.33;;
72319;SDS011;60269;52.502;16.732;2022-10-10T01:32:13;17.08;;;7.07;;
72319;SDS011;60269;52.502;16.732;2022-10-10T01:43:29;21.88;;;7.97;;
72319;SDS011;60269;52.502;16.732;2022-10-10T01:47:01;22.02;;;6.88;;
72319;SDS011;60269;52.502;16.732;2022-10-10T01:50:34;19.40;;;7.80;;
72319;SDS011;60269;52.502;16.732;2022-10-10T01:58:29;19.08;;;6.55;;
72319;SDS011;60269;52.502;16.732;2022-10-10T02:06:26;19.40;;;7.03;;
72319;SDS011;60269;52.502;16.732;2022-10-10T02:10:06;17.47;;;7.43;;
72319;SDS011;60269;52.502;16.732;2022-10-10T02:13:42;22.42;;;8.25;;
72319;SDS011;60269;52.502;16.732;2022-10-10T02:17:18;21.65;;;7.78;;
72319;SDS011;60269;52.502;16.732;2022-10-10T02:20:51;24.93;;;8.87;;
72319;SDS011;60269;52.502;16.732;2022-10-10T02:24:24;23.73;;;7.47;;
72319;SDS011;60269;52.502;16.732;2022-10-10T02:27:58;18.30;;;7.22;;
72319;SDS011;60269;52.502;16.732;2022-10-10T02:31:44;21.90;;;7.43;;
72319;SDS011;60269;52.502;16.732;2022-10-10T02:35:24;18.48;;;7.18;;
72319;SDS011;60269;52.502;16.732;2022-10-10T02:38:59;19.52;;;6.97;;
72319;SDS011;60269;52.502;16.732;2022-10-10T02:42:33;19.17;;;7.82;;
72319;SDS011;60269;52.502;16.732;2022-10-10T02:46:07;18.00;;;7.70;;
72319;SDS011;60269;52.502;16.732;2022-10-10T02:49:42;19.50;;;8.05;;
72319;SDS011;60269;52.502;16.732;2022-10-10T02:53:14;18.98;;;7.25;;
72319;SDS011;60269;52.502;16.732;2022-10-10T02:56:45;17.23;;;6.93;;
72319;SDS011;60269;52.502;16.732;2022-10-10T03:00:18;17.58;;;7.22;;
72319;SDS011;60269;52.502;16.732;2022-10-10T03:03:50;18.10;;;7.38;;
72319;SDS011;60269;52.502;16.732;2022-10-10T03:07:21;17.60;;;6.67;;
72319;SDS011;60269;52.502;16.732;2022-10-10T03:10:57;25.57;;;8.00;;
72319;SDS011;60269;52.502;16.732;2022-10-10T03:14:30;17.67;;;7.13;;
72319;SDS011;60269;52.502;16.732;2022-10-10T03:18:02;17.38;;;7.18;;
72319;SDS011;60269;52.502;16.732;2022-10-10T03:21:34;22.70;;;7.20;;
72319;SDS011;60269;52.502;16.732;2022-10-10T03:25:06;20.65;;;7.88;;
72319;SDS011;60269;52.502;16.732;2022-10-10T03:28:38;23.77;;;7.57;;
72319;SDS011;60269;52.502;16.732;2022-10-10T03:32:10;21.48;;;8.05;;
72319;SDS011;60269;52.502;16.732;2022-10-10T03:35:42;21.37;;;7.53;;
72319;SDS011;60269;52.502;16.732;2022-10-10T03:39:14;20.05;;;7.88;;
72319;SDS011;60269;52.502;16.732;2022-10-10T03:42:46;17.10;;;6.50;;
72319;SDS011;60269;52.502;16.732;2022-10-10T03:46:18;20.27;;;7.67;;
72319;SDS011;60269;52.502;16.732;2022-10-10T03:49:51;20.08;;;7.22;;
72319;SDS011;60269;52.502;16.732;2022-10-10T03:53:23;18.52;;;7.70;;
72319;SDS011;60269;52.502;16.732;2022-10-10T03:56:55;19.35;;;7.43;;
72319;SDS011;60269;52.502;16.732;2022-10-10T04:00:26;19.90;;;7.30;;
72319;SDS011;60269;52.502;16.732;2022-10-10T04:03:58;17.70;;;7.68;;
72319;SDS011;60269;52.502;16.732;2022-10-10T04:07:30;17.35;;;7.05;;
72319;SDS011;60269;52.502;16.732;2022-10-10T04:11:02;17.90;;;7.20;;
72319;SDS011;60269;52.502;16.732;2022-10-10T04:14:34;23.70;;;8.93;;
72319;SDS011;60269;52.502;16.732;2022-10-10T04:18:06;22.55;;;7.78;;
72319;SDS011;60269;52.502;16.732;2022-10-10T04:21:38;20.77;;;8.03;;
72319;SDS011;60269;52.502;16.732;2022-10-10T04:25:10;20.50;;;7.65;;
72319;SDS011;60269;52.502;16.732;2022-10-10T04:28:42;19.83;;;7.72;;
72319;SDS011;60269;52.502;16.732;2022-10-10T04:32:14;29.35;;;8.88;;
72319;SDS011;60269;52.502;16.732;2022-10-10T04:35:46;19.27;;;8.00;;
72319;SDS011;60269;52.502;16.732;2022-10-10T04:39:20;21.45;;;9.05;;
72319;SDS011;60269;52.502;16.732;2022-10-10T04:42:53;21.38;;;8.80;;
72319;SDS011;60269;52.502;16.732;2022-10-10T04:46:25;22.40;;;8.13;;
72319;SDS011;60269;52.502;16.732;2022-10-10T04:49:57;21.30;;;7.75;;
72319;SDS011;60269;52.502;16.732;2022-10-10T04:53:29;27.75;;;7.93;;
72319;SDS011;60269;52.502;16.732;2022-10-10T04:57:01;20.33;;;7.47;;
72319;SDS011;60269;52.502;16.732;2022-10-10T05:00:33;21.67;;;7.72;;
72319;SDS011;60269;52.502;16.732;2022-10-10T05:04:04;22.35;;;8.23;;
72319;SDS011;60269;52.502;16.732;2022-10-10T05:07:36;21.88;;;8.38;;
72319;SDS011;60269;52.502;16.732;2022-10-10T05:11:08;22.57;;;9.00;;
72319;SDS011;60269;52.502;16.732;2022-10-10T05:14:40;19.55;;;7.97;;
72319;SDS011;60269;52.502;16.732;2022-10-10T05:18:18;18.88;;;8.13;;
72319;SDS011;60269;52.502;16.732;2022-10-10T05:21:51;26.27;;;8.40;;
72319;SDS011;60269;52.502;16.732;2022-10-10T05:25:22;20.50;;;9.13;;
72319;SDS011;60269;52.502;16.732;2022-10-10T05:28:55;19.67;;;7.70;;
72319;SDS011;60269;52.502;16.732;2022-10-10T05:32:26;21.50;;;8.23;;
72319;SDS011;60269;52.502;16.732;2022-10-10T05:36:09;20.73;;;8.20;;
72319;SDS011;60269;52.502;16.732;2022-10-10T05:39:43;20.33;;;9.10;;
72319;SDS011;60269;52.502;16.732;2022-10-10T05:43:15;21.48;;;8.68;;
72319;SDS011;60269;52.502;16.732;2022-10-10T05:46:46;20.83;;;8.33;;
72319;SDS011;60269;52.502;16.732;2022-10-10T05:54:09;19.15;;;8.00;;
72319;SDS011;60269;52.502;16.732;2022-10-10T05:57:41;18.70;;;7.77;;
72319;SDS011;60269;52.502;16.732;2022-10-10T06:01:13;21.88;;;8.00;;
72319;SDS011;60269;52.502;16.732;2022-10-10T06:04:44;19.98;;;7.85;;
72319;SDS011;60269;52.502;16.732;2022-10-10T06:08:16;21.90;;;8.07;;
72319;SDS011;60269;52.502;16.732;2022-10-10T06:11:48;15.87;;;6.87;;
72319;SDS011;60269;52.502;16.732;2022-10-10T06:15:20;16.77;;;7.43;;
72319;SDS011;60269;52.502;16.732;2022-10-10T06:18:52;20.58;;;6.97;;
72319;SDS011;60269;52.502;16.732;2022-10-10T06:22:26;17.00;;;7.43;;
72319;SDS011;60269;52.502;16.732;2022-10-10T06:25:58;17.13;;;7.70;;
72319;SDS011;60269;52.502;16.732;2022-10-10T06:29:31;18.63;;;7.05;;
72319;SDS011;60269;52.502;16.732;2022-10-10T06:33:02;20.48;;;7.97;;
72319;SDS011;60269;52.502;16.732;2022-10-10T06:36:34;18.70;;;8.20;;
72319;SDS011;60269;52.502;16.732;2022-10-10T06:40:06;20.90;;;7.73;;
72319;SDS011;60269;52.502;16.732;2022-10-10T06:43:38;21.48;;;6.95;;
72319;SDS011;60269;52.502;16.732;2022-10-10T06:47:12;15.60;;;6.65;;
72319;SDS011;60269;52.502;16.732;2022-10-10T06:50:53;17.43;;;6.50;;
72319;SDS011;60269;52.502;16.732;2022-10-10T06:54:26;14.40;;;5.50;;
72319;SDS011;60269;52.502;16.732;2022-10-10T06:57:58;12.30;;;4.60;;
72319;SDS011;60269;52.502;16.732;2022-10-10T07:01:30;13.63;;;5.15;;
72319;SDS011;60269;52.502;16.732;2022-10-10T07:05:02;14.03;;;5.17;;
72319;SDS011;60269;52.502;16.732;2022-10-10T07:08:34;13.70;;;5.40;;
72319;SDS011;60269;52.502;16.732;2022-10-10T07:12:06;13.68;;;5.10;;
72319;SDS011;60269;52.502;16.732;2022-10-10T07:15:38;13.20;;;4.90;;
72319;SDS011;60269;52.502;16.732;2022-10-10T07:19:09;16.53;;;5.13;;
72319;SDS011;60269;52.502;16.732;2022-10-10T07:22:42;15.27;;;5.97;;
72319;SDS011;60269;52.502;16.732;2022-10-10T07:26:13;14.93;;;5.25;;
72319;SDS011;60269;52.502;16.732;2022-10-10T07:29:47;19.03;;;5.77;;
72319;SDS011;60269;52.502;16.732;2022-10-10T07:33:19;16.10;;;5.37;;
72319;SDS011;60269;52.502;16.732;2022-10-10T07:36:50;13.13;;;5.07;;
72319;SDS011;60269;52.502;16.732;2022-10-10T07:40:22;14.20;;;5.40;;
72319;SDS011;60269;52.502;16.732;2022-10-10T07:43:55;12.27;;;5.53;;
72319;SDS011;60269;52.502;16.732;2022-10-10T07:47:27;15.17;;;5.33;;
72319;SDS011;60269;52.502;16.732;2022-10-10T07:50:59;12.05;;;5.60;;
72319;SDS011;60269;52.502;16.732;2022-10-10T07:54:31;12.38;;;5.43;;
72319;SDS011;60269;52.502;16.732;2022-10-10T07:58:03;14.60;;;5.97;;
72319;SDS011;60269;52.502;16.732;2022-10-10T08:01:35;13.43;;;6.27;;
72319;SDS011;60269;52.502;16.732;2022-10-10T08:05:07;16.27;;;5.70;;
72319;SDS011;60269;52.502;16.732;2022-10-10T08:08:39;14.48;;;5.93;;
72319;SDS011;60269;52.502;16.732;2022-10-10T08:12:21;15.30;;;6.30;;
72319;SDS011;60269;52.502;16.732;2022-10-10T08:15:53;14.43;;;5.93;;
72319;SDS011;60269;52.502;16.732;2022-10-10T08:19:25;12.82;;;5.65;;
72319;SDS011;60269;52.502;16.732;2022-10-10T08:22:56;14.73;;;5.55;;
72319;SDS011;60269;52.502;16.732;2022-10-10T08:26:29;15.43;;;5.77;;
72319;SDS011;60269;52.502;16.732;2022-10-10T08:30:01;14.80;;;5.93;;
72319;SDS011;60269;52.502;16.732;2022-10-10T08:33:33;15.85;;;6.57;;
72319;SDS011;60269;52.502;16.732;2022-10-10T08:37:05;18.42;;;5.22;;
72319;SDS011;60269;52.502;16.732;2022-10-10T08:40:41;16.50;;;6.67;;
72319;SDS011;60269;52.502;16.732;2022-10-10T08:44:24;14.33;;;5.70;;
72319;SDS011;60269;52.502;16.732;2022-10-10T08:47:58;12.95;;;5.90;;
72319;SDS011;60269;52.502;16.732;2022-10-10T08:51:36;13.45;;;5.50;;
72319;SDS011;60269;52.502;16.732;2022-10-10T08:55:32;14.73;;;5.57;;
72319;SDS011;60269;52.502;16.732;2022-10-10T08:59:15;18.90;;;5.33;;
72319;SDS011;60269;52.502;16.732;2022-10-10T09:02:56;14.48;;;5.55;;
72319;SDS011;60269;52.502;16.732;2022-10-10T09:17:44;12.40;;;5.20;;
72319;SDS011;60269;52.502;16.732;2022-10-10T09:21:35;14.85;;;5.18;;
72319;SDS011;60269;52.502;16.732;2022-10-10T09:25:15;13.82;;;5.18;;
72319;SDS011;60269;52.502;16.732;2022-10-10T09:28:55;13.52;;;5.63;;
72319;SDS011;60269;52.502;16.732;2022-10-10T09:33:37;14.10;;;4.87;;
72319;SDS011;60269;52.502;16.732;2022-10-10T09:36:48;14.27;;;4.65;;
72319;SDS011;60269;52.502;16.732;2022-10-10T09:40:23;11.30;;;4.82;;
72319;SDS011;60269;52.502;16.732;2022-10-10T09:43:59;17.07;;;5.17;;
72319;SDS011;60269;52.502;16.732;2022-10-10T09:47:35;15.43;;;4.80;;
72319;SDS011;60269;52.502;16.732;2022-10-10T09:51:10;12.60;;;5.18;;
72319;SDS011;60269;52.502;16.732;2022-10-10T09:54:44;11.32;;;4.80;;
72319;SDS011;60269;52.502;16.732;2022-10-10T10:02:10;9.47;;;3.67;;
72319;SDS011;60269;52.502;16.732;2022-10-10T10:05:55;11.32;;;4.28;;
72319;SDS011;60269;52.502;16.732;2022-10-10T10:09:31;11.98;;;4.55;;
72319;SDS011;60269;52.502;16.732;2022-10-10T10:13:10;12.68;;;4.35;;
72319;SDS011;60269;52.502;16.732;2022-10-10T10:16:44;12.00;;;3.70;;
72319;SDS011;60269;52.502;16.732;2022-10-10T10:24:00;9.15;;;3.70;;
72319;SDS011;60269;52.502;16.732;2022-10-10T10:27:48;10.93;;;3.90;;
72319;SDS011;60269;52.502;16.732;2022-10-10T10:31:23;9.70;;;3.95;;
72319;SDS011;60269;52.502;16.732;2022-10-10T10:39:02;11.63;;;3.83;;
72319;SDS011;60269;52.502;16.732;2022-10-10T10:43:03;14.02;;;4.22;;
72319;SDS011;60269;52.502;16.732;2022-10-10T10:50:48;13.48;;;3.72;;
72319;SDS011;60269;52.502;16.732;2022-10-10T11:02:25;10.25;;;3.75;;
72319;SDS011;60269;52.502;16.732;2022-10-10T11:06:57;10.00;;;3.60;;
72319;SDS011;60269;52.502;16.732;2022-10-10T11:10:56;9.48;;;2.92;;
72319;SDS011;60269;52.502;16.732;2022-10-10T11:18:34;10.10;;;2.85;;
72319;SDS011;60269;52.502;16.732;2022-10-10T11:22:35;10.45;;;3.22;;
72319;SDS011;60269;52.502;16.732;2022-10-10T11:26:40;8.07;;;3.25;;
72319;SDS011;60269;52.502;16.732;2022-10-10T11:30:25;8.82;;;3.00;;
72319;SDS011;60269;52.502;16.732;2022-10-10T11:34:03;11.60;;;2.97;;
72319;SDS011;60269;52.502;16.732;2022-10-10T11:37:42;8.63;;;2.53;;
72319;SDS011;60269;52.502;16.732;2022-10-10T11:41:21;8.75;;;2.75;;
72319;SDS011;60269;52.502;16.732;2022-10-10T11:45:12;11.00;;;3.38;;
72319;SDS011;60269;52.502;16.732;2022-10-10T11:48:51;8.90;;;2.88;;
72319;SDS011;60269;52.502;16.732;2022-10-10T11:56:27;11.65;;;3.03;;
72319;SDS011;60269;52.502;16.732;2022-10-10T12:00:05;9.80;;;3.00;;
72319;SDS011;60269;52.502;16.732;2022-10-10T12:03:42;11.82;;;2.85;;
72319;SDS011;60269;52.502;16.732;2022-10-10T12:07:18;11.40;;;3.42;;
72319;SDS011;60269;52.502;16.732;2022-10-10T12:11:34;8.10;;;2.63;;
72319;SDS011;60269;52.502;16.732;2022-10-10T12:19:02;10.35;;;3.20;;
72319;SDS011;60269;52.502;16.732;2022-10-10T12:22:37;9.95;;;2.78;;
72319;SDS011;60269;52.502;16.732;2022-10-10T12:26:13;7.90;;;2.35;;
72319;SDS011;60269;52.502;16.732;2022-10-10T12:48:16;11.50;;;3.13;;
72319;SDS011;60269;52.502;16.732;2022-10-10T12:51:57;8.50;;;3.03;;
72319;SDS011;60269;52.502;16.732;2022-10-10T12:55:40;12.23;;;3.33;;
72319;SDS011;60269;52.502;16.732;2022-10-10T12:59:17;9.65;;;3.35;;
72319;SDS011;60269;52.502;16.732;2022-10-10T13:02:56;9.63;;;3.33;;
72319;SDS011;60269;52.502;16.732;2022-10-10T13:06:38;9.45;;;3.10;;
72319;SDS011;60269;52.502;16.732;2022-10-10T13:10:21;7.25;;;3.28;;
72319;SDS011;60269;52.502;16.732;2022-10-10T13:13:55;7.28;;;2.65;;
72319;SDS011;60269;52.502;16.732;2022-10-10T13:17:29;12.27;;;3.35;;
72319;SDS011;60269;52.502;16.732;2022-10-10T13:21:04;9.23;;;3.17;;
72319;SDS011;60269;52.502;16.732;2022-10-10T13:24:38;6.88;;;2.90;;
72319;SDS011;60269;52.502;16.732;2022-10-10T13:28:19;10.80;;;4.07;;
72319;SDS011;60269;52.502;16.732;2022-10-10T13:31:53;11.55;;;3.67;;
72319;SDS011;60269;52.502;16.732;2022-10-10T13:35:27;10.83;;;3.50;;
72319;SDS011;60269;52.502;16.732;2022-10-10T13:39:00;13.30;;;4.00;;
72319;SDS011;60269;52.502;16.732;2022-10-10T13:42:36;13.55;;;3.55;;
72319;SDS011;60269;52.502;16.732;2022-10-10T13:49:55;8.93;;;3.95;;
72319;SDS011;60269;52.502;16.732;2022-10-10T13:57:02;12.30;;;3.70;;
72319;SDS011;60269;52.502;16.732;2022-10-10T14:00:36;11.88;;;3.70;;
72319;SDS011;60269;52.502;16.732;2022-10-10T14:07:45;10.60;;;3.37;;
72319;SDS011;60269;52.502;16.732;2022-10-10T14:11:19;14.17;;;3.83;;
72319;SDS011;60269;52.502;16.732;2022-10-10T14:14:55;10.90;;;3.55;;
72319;SDS011;60269;52.502;16.732;2022-10-10T14:18:29;11.90;;;3.88;;
72319;SDS011;60269;52.502;16.732;2022-10-10T14:22:00;11.20;;;3.63;;
72319;SDS011;60269;52.502;16.732;2022-10-10T14:25:32;14.30;;;3.90;;
72319;SDS011;60269;52.502;16.732;2022-10-10T14:29:05;12.67;;;3.77;;
72319;SDS011;60269;52.502;16.732;2022-10-10T14:32:44;9.73;;;3.67;;
72319;SDS011;60269;52.502;16.732;2022-10-10T14:36:16;8.40;;;3.80;;
72319;SDS011;60269;52.502;16.732;2022-10-10T14:39:47;10.05;;;4.05;;
72319;SDS011;60269;52.502;16.732;2022-10-10T14:43:20;8.30;;;3.80;;
72319;SDS011;60269;52.502;16.732;2022-10-10T14:46:52;10.50;;;3.90;;
72319;SDS011;60269;52.502;16.732;2022-10-10T14:50:26;9.25;;;3.75;;
72319;SDS011;60269;52.502;16.732;2022-10-10T14:54:03;15.90;;;3.83;;
72319;SDS011;60269;52.502;16.732;2022-10-10T14:57:44;9.60;;;4.37;;
72319;SDS011;60269;52.502;16.732;2022-10-10T15:01:19;17.00;;;4.97;;
72319;SDS011;60269;52.502;16.732;2022-10-10T15:04:51;9.90;;;3.97;;
72319;SDS011;60269;52.502;16.732;2022-10-10T15:08:23;10.40;;;4.03;;
72319;SDS011;60269;52.502;16.732;2022-10-10T15:11:54;13.35;;;4.55;;
72319;SDS011;60269;52.502;16.732;2022-10-10T15:15:26;11.93;;;4.83;;
72319;SDS011;60269;52.502;16.732;2022-10-10T15:18:58;12.90;;;4.27;;
72319;SDS011;60269;52.502;16.732;2022-10-10T15:22:30;8.68;;;3.97;;
72319;SDS011;60269;52.502;16.732;2022-10-10T15:26:02;11.00;;;4.53;;
72319;SDS011;60269;52.502;16.732;2022-10-10T15:29:34;13.25;;;4.55;;
72319;SDS011;60269;52.502;16.732;2022-10-10T15:33:08;11.47;;;4.20;;
72319;SDS011;60269;52.502;16.732;2022-10-10T15:36:40;10.75;;;4.15;;
72319;SDS011;60269;52.502;16.732;2022-10-10T15:40:13;13.30;;;5.50;;
72319;SDS011;60269;52.502;16.732;2022-10-10T15:43:47;14.65;;;5.68;;
72319;SDS011;60269;52.502;16.732;2022-10-10T15:47:22;13.00;;;6.15;;
72319;SDS011;60269;52.502;16.732;2022-10-10T15:50:54;13.47;;;5.53;;
72319;SDS011;60269;52.502;16.732;2022-10-10T15:54:26;10.52;;;5.05;;
72319;SDS011;60269;52.502;16.732;2022-10-10T15:57:57;14.40;;;5.38;;
72319;SDS011;60269;52.502;16.732;2022-10-10T16:01:29;13.07;;;5.47;;
72319;SDS011;60269;52.502;16.732;2022-10-10T16:05:01;15.97;;;7.30;;
72319;SDS011;60269;52.502;16.732;2022-10-10T16:08:35;14.97;;;6.13;;
72319;SDS011;60269;52.502;16.732;2022-10-10T16:12:07;18.23;;;5.60;;
72319;SDS011;60269;52.502;16.732;2022-10-10T16:15:39;13.43;;;5.47;;
72319;SDS011;60269;52.502;16.732;2022-10-10T16:19:11;12.60;;;5.47;;
72319;SDS011;60269;52.502;16.732;2022-10-10T16:22:43;12.87;;;5.53;;
72319;SDS011;60269;52.502;16.732;2022-10-10T16:26:19;15.82;;;5.65;;
72319;SDS011;60269;52.502;16.732;2022-10-10T16:29:52;14.13;;;6.30;;
72319;SDS011;60269;52.502;16.732;2022-10-10T16:33:25;13.98;;;5.43;;
72319;SDS011;60269;52.502;16.732;2022-10-10T16:36:57;16.60;;;5.90;;
72319;SDS011;60269;52.502;16.732;2022-10-10T16:40:29;17.95;;;5.22;;
72319;SDS011;60269;52.502;16.732;2022-10-10T16:44:01;15.98;;;6.95;;
72319;SDS011;60269;52.502;16.732;2022-10-10T16:47:33;16.23;;;7.30;;
72319;SDS011;60269;52.502;16.732;2022-10-10T16:51:26;16.73;;;7.23;;
72319;SDS011;60269;52.502;16.732;2022-10-10T16:54:58;16.25;;;7.55;;
72319;SDS011;60269;52.502;16.732;2022-10-10T16:58:30;22.73;;;8.32;;
72319;SDS011;60269;52.502;16.732;2022-10-10T17:02:02;15.63;;;7.22;;
72319;SDS011;60269;52.502;16.732;2022-10-10T17:05:34;19.37;;;8.00;;
72319;SDS011;60269;52.502;16.732;2022-10-10T17:09:06;24.08;;;10.82;;
72319;SDS011;60269;52.502;16.732;2022-10-10T17:12:40;19.02;;;9.38;;
72319;SDS011;60269;52.502;16.732;2022-10-10T17:16:14;21.83;;;9.63;;
72319;SDS011;60269;52.502;16.732;2022-10-10T17:20:11;25.90;;;9.00;;
72319;SDS011;60269;52.502;16.732;2022-10-10T17:23:43;21.03;;;8.73;;
72319;SDS011;60269;52.502;16.732;2022-10-10T17:27:15;23.98;;;10.65;;
72319;SDS011;60269;52.502;16.732;2022-10-10T17:30:47;23.23;;;10.82;;
72319;SDS011;60269;52.502;16.732;2022-10-10T17:34:20;23.25;;;10.95;;
72319;SDS011;60269;52.502;16.732;2022-10-10T17:37:52;20.40;;;10.43;;
72319;SDS011;60269;52.502;16.732;2022-10-10T17:41:23;23.35;;;10.93;;
72319;SDS011;60269;52.502;16.732;2022-10-10T17:44:55;25.17;;;11.48;;
72319;SDS011;60269;52.502;16.732;2022-10-10T17:48:30;31.27;;;11.20;;
72319;SDS011;60269;52.502;16.732;2022-10-10T17:52:07;25.00;;;10.93;;
72319;SDS011;60269;52.502;16.732;2022-10-10T17:55:41;24.67;;;10.60;;
72319;SDS011;60269;52.502;16.732;2022-10-10T17:59:13;20.60;;;10.30;;
72319;SDS011;60269;52.502;16.732;2022-10-10T18:02:45;20.77;;;10.60;;
72319;SDS011;60269;52.502;16.732;2022-10-10T18:06:18;32.25;;;11.65;;
72319;SDS011;60269;52.502;16.732;2022-10-10T18:09:52;27.83;;;12.80;;
72319;SDS011;60269;52.502;16.732;2022-10-10T18:13:23;25.63;;;13.45;;
72319;SDS011;60269;52.502;16.732;2022-10-10T18:16:57;30.20;;;12.45;;
72319;SDS011;60269;52.502;16.732;2022-10-10T18:20:28;28.33;;;13.60;;
72319;SDS011;60269;52.502;16.732;2022-10-10T18:24:00;31.37;;;14.83;;
72319;SDS011;60269;52.502;16.732;2022-10-10T18:27:32;28.05;;;13.55;;
72319;SDS011;60269;52.502;16.732;2022-10-10T18:31:04;26.27;;;13.48;;
72319;SDS011;60269;52.502;16.732;2022-10-10T18:34:43;34.77;;;13.93;;
72319;SDS011;60269;52.502;16.732;2022-10-10T18:38:15;22.60;;;11.37;;
72319;SDS011;60269;52.502;16.732;2022-10-10T18:41:47;28.67;;;10.93;;
72319;SDS011;60269;52.502;16.732;2022-10-10T18:45:19;23.38;;;10.77;;
72319;SDS011;60269;52.502;16.732;2022-10-10T18:48:51;28.10;;;12.10;;
72319;SDS011;60269;52.502;16.732;2022-10-10T18:52:24;31.43;;;13.33;;
72319;SDS011;60269;52.502;16.732;2022-10-10T18:55:59;27.90;;;12.82;;
72319;SDS011;60269;52.502;16.732;2022-10-10T18:59:31;30.60;;;13.13;;
72319;SDS011;60269;52.502;16.732;2022-10-10T19:03:02;24.37;;;12.17;;
72319;SDS011;60269;52.502;16.732;2022-10-10T19:06:35;29.20;;;11.87;;
72319;SDS011;60269;52.502;16.732;2022-10-10T19:10:09;25.13;;;11.77;;
72319;SDS011;60269;52.502;16.732;2022-10-10T19:13:40;23.83;;;11.93;;
72319;SDS011;60269;52.502;16.732;2022-10-10T19:17:12;25.35;;;11.75;;
72319;SDS011;60269;52.502;16.732;2022-10-10T19:20:44;32.13;;;13.37;;
72319;SDS011;60269;52.502;16.732;2022-10-10T19:24:16;31.30;;;13.27;;
72319;SDS011;60269;52.502;16.732;2022-10-10T19:27:52;24.33;;;13.13;;
72319;SDS011;60269;52.502;16.732;2022-10-10T19:31:24;27.48;;;12.32;;
72319;SDS011;60269;52.502;16.732;2022-10-10T19:34:57;26.97;;;13.00;;
72319;SDS011;60269;52.502;16.732;2022-10-10T19:38:29;30.70;;;13.38;;
72319;SDS011;60269;52.502;16.732;2022-10-10T19:42:03;28.48;;;13.93;;
72319;SDS011;60269;52.502;16.732;2022-10-10T19:45:42;33.90;;;12.77;;
72319;SDS011;60269;52.502;16.732;2022-10-10T19:49:17;28.13;;;13.50;;
72319;SDS011;60269;52.502;16.732;2022-10-10T19:52:49;27.42;;;13.10;;
72319;SDS011;60269;52.502;16.732;2022-10-10T19:56:21;26.73;;;12.90;;
72319;SDS011;60269;52.502;16.732;2022-10-10T19:59:57;31.90;;;13.80;;
72319;SDS011;60269;52.502;16.732;2022-10-10T20:03:29;28.33;;;13.00;;
72319;SDS011;60269;52.502;16.732;2022-10-10T20:07:01;27.45;;;12.20;;
72319;SDS011;60269;52.502;16.732;2022-10-10T20:10:33;28.73;;;12.43;;
72319;SDS011;60269;52.502;16.732;2022-10-10T20:14:05;23.33;;;11.70;;
72319;SDS011;60269;52.502;16.732;2022-10-10T20:17:37;30.37;;;12.10;;
72319;SDS011;60269;52.502;16.732;2022-10-10T20:21:12;30.20;;;12.30;;
72319;SDS011;60269;52.502;16.732;2022-10-10T20:24:47;24.80;;;10.07;;
72319;SDS011;60269;52.502;16.732;2022-10-10T20:28:20;24.08;;;11.25;;
72319;SDS011;60269;52.502;16.732;2022-10-10T20:31:52;22.43;;;9.43;;
72319;SDS011;60269;52.502;16.732;2022-10-10T20:35:24;25.92;;;11.15;;
72319;SDS011;60269;52.502;16.732;2022-10-10T20:38:57;22.83;;;10.23;;
72319;SDS011;60269;52.502;16.732;2022-10-10T20:42:35;23.20;;;10.77;;
72319;SDS011;60269;52.502;16.732;2022-10-10T20:46:07;31.37;;;10.47;;
72319;SDS011;60269;52.502;16.732;2022-10-10T20:49:41;21.40;;;8.48;;
72319;SDS011;60269;52.502;16.732;2022-10-10T20:53:13;22.00;;;10.45;;
72319;SDS011;60269;52.502;16.732;2022-10-10T20:56:45;23.27;;;10.47;;
72319;SDS011;60269;52.502;16.732;2022-10-10T21:00:17;23.03;;;10.47;;
72319;SDS011;60269;52.502;16.732;2022-10-10T21:03:49;25.58;;;11.27;;
72319;SDS011;60269;52.502;16.732;2022-10-10T21:07:21;23.52;;;11.20;;
72319;SDS011;60269;52.502;16.732;2022-10-10T21:10:52;30.13;;;11.07;;
72319;SDS011;60269;52.502;16.732;2022-10-10T21:14:24;27.30;;;11.03;;
72319;SDS011;60269;52.502;16.732;2022-10-10T21:17:56;23.73;;;10.48;;
72319;SDS011;60269;52.502;16.732;2022-10-10T21:21:28;24.50;;;11.50;;
72319;SDS011;60269;52.502;16.732;2022-10-10T21:25:03;27.53;;;10.97;;
72319;SDS011;60269;52.502;16.732;2022-10-10T21:28:35;28.03;;;10.23;;
72319;SDS011;60269;52.502;16.732;2022-10-10T21:32:07;21.48;;;9.23;;
72319;SDS011;60269;52.502;16.732;2022-10-10T21:35:40;22.33;;;10.25;;
72319;SDS011;60269;52.502;16.732;2022-10-10T21:39:12;24.73;;;9.97;;
72319;SDS011;60269;52.502;16.732;2022-10-10T21:42:44;18.93;;;9.40;;
72319;SDS011;60269;52.502;16.732;2022-10-10T21:46:17;23.17;;;9.10;;
72319;SDS011;60269;52.502;16.732;2022-10-10T21:49:53;24.98;;;9.75;;
72319;SDS011;60269;52.502;16.732;2022-10-10T21:53:26;21.70;;;8.67;;
72319;SDS011;60269;52.502;16.732;2022-10-10T21:56:58;22.90;;;9.80;;
72319;SDS011;60269;52.502;16.732;2022-10-10T22:00:29;21.17;;;8.85;;
72319;SDS011;60269;52.502;16.732;2022-10-10T22:04:02;18.65;;;8.55;;
72319;SDS011;60269;52.502;16.732;2022-10-10T22:07:34;16.90;;;7.67;;
72319;SDS011;60269;52.502;16.732;2022-10-10T22:11:11;17.77;;;7.30;;
72319;SDS011;60269;52.502;16.732;2022-10-10T22:14:47;18.65;;;8.15;;
72319;SDS011;60269;52.502;16.732;2022-10-10T22:18:19;16.27;;;7.15;;
72319;SDS011;60269;52.502;16.732;2022-10-10T22:21:51;18.83;;;8.10;;
72319;SDS011;60269;52.502;16.732;2022-10-10T22:25:22;19.33;;;8.27;;
72319;SDS011;60269;52.502;16.732;2022-10-10T22:28:54;20.95;;;8.07;;
72319;SDS011;60269;52.502;16.732;2022-10-10T22:32:26;17.30;;;7.45;;
72319;SDS011;60269;52.502;16.732;2022-10-10T22:35:58;20.40;;;8.83;;
72319;SDS011;60269;52.502;16.732;2022-10-10T22:39:30;18.87;;;8.00;;